RJCC/CTS METAR and TAF weather

Enter ICAO airport designator
Station Type Date Time Source
RJCC METAR 2018/12/15 02:00 UTC NOAA

RJCC 150200Z 16002KT 9999 FEW030 M02/M09 Q1023


Station Type Date Time Source
RJCC Decoded METAR 2018/12/15 02:00 UTC NOAA

Chitose Ab, Japan (RJCC) 42-48N 141-40E 30M
Dec 14, 2018 - 09:00 PM EST / 2018.12.15 0200 UTC
Wind: from the SSE (160 degrees) at 2 MPH (2 KT):0
Visibility: greater than 7 mile(s):0
Sky conditions: mostly clear
Temperature: 28 F (-2 C)
Dew Point: 15 F (-9 C)
Relative Humidity: 58%
Pressure (altimeter): 30.21 in. Hg (1023 hPa)
ob: RJCC 150200Z 16002KT 9999 FEW030 M02/M09 Q1023
cycle: 2

Station Type Date Time Source
RJCC TAF 2018/12/15 01:57 UTC NOAA

TAF
AMD TAF
AMD RJCC 150154Z 1501/1606 23005KT 9999 FEW015 SCT030


Example: see airport list